createdAt,value
2024-03-10T00:00:25.442Z,93816.25
2024-03-10T00:01:27.879Z,93812.75
2024-03-10T00:02:30.854Z,93813.50
2024-03-10T00:03:32.789Z,93815.75
2024-03-10T00:04:35.742Z,93811.53
2024-03-10T00:05:40.645Z,93816.53
2024-03-10T00:06:43.641Z,93814.25
2024-03-10T00:07:47.518Z,93811.53
2024-03-10T00:08:54.510Z,93821.25
2024-03-10T00:09:56.635Z,93817.00
2024-03-10T00:10:59.596Z,93811.53
2024-03-10T00:12:02.248Z,93808.78
2024-03-10T00:13:05.887Z,93811.53
2024-03-10T00:14:08.615Z,93811.53
2024-03-10T00:15:12.563Z,93814.72
2024-03-10T00:16:14.527Z,93812.28
2024-03-10T00:17:18.446Z,93817.00
2024-03-10T00:18:21.565Z,93804.78
2024-03-10T00:19:23.411Z,93811.78
2024-03-10T00:20:26.566Z,93809.81
2024-03-10T00:21:28.588Z,93804.31
2024-03-10T00:22:31.746Z,93807.81
2024-03-10T00:23:36.211Z,93811.28
2024-03-10T00:24:40.406Z,93810.53
2024-03-10T00:25:44.364Z,93809.06
2024-03-10T00:26:47.315Z,93807.53
2024-03-10T00:27:50.931Z,93812.28
2024-03-10T00:28:53.897Z,93809.06
2024-03-10T00:29:55.844Z,93815.75
2024-03-10T00:31:00.820Z,93811.03
2024-03-10T00:32:03.020Z,93811.78
2024-03-10T00:33:07.844Z,93814.03
2024-03-10T00:34:09.835Z,93810.53
2024-03-10T00:35:12.998Z,93811.28
2024-03-10T00:36:15.086Z,93803.84
2024-03-10T00:37:18.076Z,93810.53
2024-03-10T00:38:20.507Z,93809.06
2024-03-10T00:39:23.905Z,93810.53
2024-03-10T00:40:27.609Z,93815.28
2024-03-10T00:41:31.158Z,93805.06
2024-03-10T00:42:33.245Z,93805.06
2024-03-10T00:43:36.142Z,93807.34
2024-03-10T00:44:38.098Z,93805.81
2024-03-10T00:45:41.924Z,93799.59
2024-03-10T00:46:44.015Z,93804.31
2024-03-10T00:47:49.240Z,93805.81
2024-03-10T00:48:51.143Z,93805.81
2024-03-10T00:49:53.082Z,93808.56
2024-03-10T00:50:57.472Z,93799.59
2024-03-10T00:51:59.417Z,93795.34
2024-03-10T00:53:02.600Z,93799.59
2024-03-10T00:54:04.950Z,93802.81
2024-03-10T00:55:11.010Z,93797.81
2024-03-10T00:56:19.762Z,93793.53
2024-03-10T00:57:22.734Z,93798.78
2024-03-10T00:58:24.645Z,93793.78
2024-03-10T00:59:29.877Z,93789.03
2024-03-10T01:00:33.914Z,93800.75
2024-03-10T01:01:37.906Z,93796.50
2024-03-10T01:02:40.258Z,93796.97
2024-03-10T01:03:44.014Z,93801.72
2024-03-10T01:04:45.955Z,93796.22
2024-03-10T01:05:48.902Z,93804.00
2024-03-10T01:06:50.822Z,93791.50
2024-03-10T01:07:54.308Z,93792.25
2024-03-10T01:08:56.284Z,93788.75
2024-03-10T01:09:59.420Z,93786.25
2024-03-10T01:11:02.185Z,93784.94
2024-03-10T01:12:07.463Z,93787.19
2024-03-10T01:13:09.520Z,93783.69
2024-03-10T01:14:12.852Z,93779.22
2024-03-10T01:15:14.757Z,93775.53
2024-03-10T01:16:19.718Z,93775.47
2024-03-10T01:17:21.661Z,93775.75
2024-03-10T01:18:24.649Z,93769.56
2024-03-10T01:19:27.756Z,93767.78
2024-03-10T01:20:30.722Z,93772.56
2024-03-10T01:21:32.717Z,93771.28
2024-03-10T01:22:35.571Z,93775.31
2024-03-10T01:23:37.521Z,93768.53
2024-03-10T01:24:40.707Z,93773.56
2024-03-10T01:25:43.476Z,93761.34
2024-03-10T01:26:46.383Z,93768.06
2024-03-10T01:27:49.700Z,93763.34
2024-03-10T01:28:53.034Z,93766.81
2024-03-10T01:29:54.934Z,93760.13
2024-03-10T01:30:57.898Z,93761.63
2024-03-10T01:31:59.793Z,93760.88
2024-03-10T01:33:03.372Z,93758.88
2024-03-10T01:34:05.545Z,93761.63
2024-03-10T01:35:09.084Z,93760.13
2024-03-10T01:36:11.420Z,93755.38
2024-03-10T01:37:14.486Z,93760.13
2024-03-10T01:38:19.985Z,93761.63
2024-03-10T01:39:24.862Z,93758.88
2024-03-10T01:40:26.869Z,93753.38
2024-03-10T01:41:29.798Z,93751.41
2024-03-10T01:42:31.698Z,93750.81
2024-03-10T01:43:36.120Z,93747.53
2024-03-10T01:44:38.821Z,93752.75
2024-03-10T01:45:41.871Z,93751.97
2024-03-10T01:46:44.009Z,93745.75
2024-03-10T01:47:48.691Z,93744.25
2024-03-10T01:48:51.074Z,93741.78
2024-03-10T01:49:54.083Z,93743.28
2024-03-10T01:50:56.115Z,93740.09
2024-03-10T01:52:00.124Z,93736.66
2024-03-10T01:53:02.218Z,93729.97
2024-03-10T01:54:06.255Z,93725.97
2024-03-10T01:55:12.766Z,93729.47
2024-03-10T01:56:17.412Z,93725.50
2024-03-10T01:57:21.178Z,93724.75
2024-03-10T01:58:23.188Z,93724.75
2024-03-10T01:59:28.051Z,93730.97
2024-03-10T02:00:30.286Z,93722.25
2024-03-10T02:01:36.929Z,93722.25
2024-03-10T02:02:38.908Z,93716.03
2024-03-10T02:03:44.116Z,93714.53
2024-03-10T02:04:46.293Z,93713.78
2024-03-10T02:05:49.517Z,93713.78
2024-03-10T02:06:53.579Z,93709.03
2024-03-10T02:07:58.484Z,93702.81
2024-03-10T02:09:00.443Z,93701.56
2024-03-10T02:10:04.207Z,93708.28
2024-03-10T02:11:07.495Z,93706.78
2024-03-10T02:12:09.640Z,93704.03
2024-03-10T02:13:12.817Z,93694.31
2024-03-10T02:14:15.129Z,93702.28
2024-03-10T02:15:22.327Z,93707.75
2024-03-10T02:16:24.757Z,93707.75
2024-03-10T02:17:27.771Z,93706.22
2024-03-10T02:18:29.851Z,93703.50
2024-03-10T02:19:32.749Z,93705.47
2024-03-10T02:20:34.736Z,93698.50
2024-03-10T02:21:36.719Z,93692.25
2024-03-10T02:22:40.541Z,93698.50
2024-03-10T02:23:58.098Z,93707.41
2024-03-10T02:25:03.426Z,93705.16
2024-03-10T02:26:06.842Z,93698.16
2024-03-10T02:27:16.922Z,93695.41
2024-03-10T02:28:22.378Z,93695.91
2024-03-10T02:29:27.774Z,93698.16
2024-03-10T02:30:33.467Z,93696.66
2024-03-10T02:31:54.249Z,93698.66
2024-03-10T02:33:15.357Z,93705.16
2024-03-10T02:34:36.231Z,93687.97
2024-03-10T02:35:56.663Z,93695.69
2024-03-10T02:37:17.135Z,93693.44
2024-03-10T02:38:37.763Z,93692.69
2024-03-10T02:40:08.353Z,93702.91
2024-03-10T02:41:30.237Z,93695.16
2024-03-10T02:42:50.845Z,93695.16
2024-03-10T02:44:11.298Z,93695.41
2024-03-10T02:45:32.098Z,93695.41
2024-03-10T02:46:52.541Z,93685.69
2024-03-10T02:47:55.708Z,93691.19
2024-03-10T02:48:57.838Z,93689.66
2024-03-10T02:50:06.911Z,93698.66
2024-03-10T02:51:08.940Z,93695.16
2024-03-10T02:52:13.681Z,93686.69
2024-03-10T02:53:16.053Z,93688.16
2024-03-10T02:54:18.125Z,93690.63
2024-03-10T02:55:20.915Z,93690.63
2024-03-10T02:56:24.409Z,93689.16
2024-03-10T02:57:27.280Z,93686.13
2024-03-10T02:58:29.638Z,93686.88
2024-03-10T02:59:32.722Z,93690.09
2024-03-10T03:00:36.218Z,93680.38
2024-03-10T03:01:39.291Z,93674.91
2024-03-10T03:02:42.306Z,93683.13
2024-03-10T03:03:44.194Z,93681.59
2024-03-10T03:04:47.540Z,93679.34
2024-03-10T03:05:49.410Z,93672.34
2024-03-10T03:06:52.275Z,93671.88
2024-03-10T03:07:54.369Z,93671.59
2024-03-10T03:08:58.626Z,93670.13
2024-03-10T03:10:00.534Z,93675.59
2024-03-10T03:11:03.480Z,93672.59
2024-03-10T03:12:07.147Z,93661.63
2024-03-10T03:13:10.232Z,93667.09
2024-03-10T03:14:14.444Z,93660.09
2024-03-10T03:15:18.119Z,93656.59
2024-03-10T03:16:20.291Z,93651.59
2024-03-10T03:17:25.354Z,93648.88
2024-03-10T03:18:27.543Z,93657.09
2024-03-10T03:19:30.412Z,93648.13
2024-03-10T03:20:34.179Z,93646.13
2024-03-10T03:21:37.780Z,93645.38
2024-03-10T03:22:42.353Z,93637.16
2024-03-10T03:23:45.202Z,93639.91
2024-03-10T03:24:47.140Z,93639.16
2024-03-10T03:25:50.826Z,93641.88
2024-03-10T03:26:54.210Z,93639.16
2024-03-10T03:27:57.746Z,93639.91
2024-03-10T03:29:00.747Z,93644.63
2024-03-10T03:30:03.698Z,93634.91
2024-03-10T03:31:06.888Z,93632.19
2024-03-10T03:32:09.146Z,93641.63
2024-03-10T03:33:13.640Z,93641.63
2024-03-10T03:34:18.441Z,93644.34
2024-03-10T03:35:21.968Z,93640.13
2024-03-10T03:36:24.087Z,93634.66
2024-03-10T03:37:27.157Z,93627.63
2024-03-10T03:38:29.177Z,93628.38
2024-03-10T03:39:32.450Z,93631.63
2024-03-10T03:40:34.948Z,93626.63
2024-03-10T03:41:38.080Z,93630.09
2024-03-10T03:42:40.835Z,93623.88
2024-03-10T03:43:45.148Z,93628.63
2024-03-10T03:44:47.252Z,93621.63
2024-03-10T03:45:50.967Z,93620.41
2024-03-10T03:46:52.916Z,93620.88
2024-03-10T03:47:55.905Z,93620.13
2024-03-10T03:48:58.672Z,93625.59
2024-03-10T03:50:01.885Z,93627.59
2024-03-10T03:51:04.632Z,93618.63
2024-03-10T03:52:08.917Z,93623.03
2024-03-10T03:53:10.984Z,93616.25
2024-03-10T03:54:14.141Z,93610.94
2024-03-10T03:55:16.004Z,93613.44
2024-03-10T03:56:18.965Z,93605.25
2024-03-10T03:57:21.262Z,93603.38
2024-03-10T03:58:24.063Z,93604.13
2024-03-10T03:59:27.323Z,93605.59
2024-03-10T04:00:31.101Z,93598.91
2024-03-10T04:01:32.928Z,93604.38
2024-03-10T04:02:35.785Z,93604.66
2024-03-10T04:03:38.905Z,93600.69
2024-03-10T04:04:42.312Z,93610.41
2024-03-10T04:05:44.261Z,93614.66
2024-03-10T04:06:47.333Z,93602.94
2024-03-10T04:07:49.269Z,93602.19
2024-03-10T04:08:58.196Z,93600.19
2024-03-10T04:10:00.602Z,93592.44
2024-03-10T04:11:03.652Z,93599.19
2024-03-10T04:12:06.414Z,93587.44
2024-03-10T04:13:09.474Z,93592.94
2024-03-10T04:14:11.920Z,93596.16
2024-03-10T04:15:16.836Z,93601.66
2024-03-10T04:16:19.207Z,93601.66
2024-03-10T04:17:23.297Z,93600.91
2024-03-10T04:18:25.332Z,93597.88
2024-03-10T04:19:28.235Z,93597.88
2024-03-10T04:20:30.113Z,93601.84
2024-03-10T04:21:34.702Z,93599.09
2024-03-10T04:22:38.130Z,93596.09
2024-03-10T04:23:42.570Z,93593.34
2024-03-10T04:24:44.480Z,93589.56
2024-03-10T04:25:47.569Z,93600.53
2024-03-10T04:26:49.536Z,93594.31
2024-03-10T04:27:51.530Z,93585.34
2024-03-10T04:28:55.113Z,93583.81
2024-03-10T04:29:57.148Z,93585.06
2024-03-10T04:31:01.370Z,93579.59
2024-03-10T04:32:03.536Z,93569.84
2024-03-10T04:33:06.800Z,93579.59
2024-03-10T04:34:09.974Z,93572.59
2024-03-10T04:35:13.358Z,93568.63
2024-03-10T04:36:16.876Z,93567.09
2024-03-10T04:37:18.809Z,93563.63
2024-03-10T04:38:21.683Z,93555.41
2024-03-10T04:39:24.070Z,93548.44
2024-03-10T04:40:26.958Z,93549.19
2024-03-10T04:41:29.718Z,93549.19
2024-03-10T04:42:32.750Z,93547.69
2024-03-10T04:43:34.665Z,93549.94
2024-03-10T04:44:38.294Z,93554.66
2024-03-10T04:45:40.262Z,93540.69
2024-03-10T04:46:44.814Z,93549.38
2024-03-10T04:47:46.954Z,93536.19
2024-03-10T04:48:51.797Z,93539.41
2024-03-10T04:49:53.752Z,93530.16
2024-03-10T04:50:58.569Z,93530.16
2024-03-10T04:52:00.567Z,93528.66
2024-03-10T04:53:03.712Z,93511.97
2024-03-10T04:54:06.242Z,93521.69
2024-03-10T04:55:09.693Z,93512.44
2024-03-10T04:56:13.663Z,93518.69
2024-03-10T04:57:16.651Z,93512.44
2024-03-10T04:58:18.544Z,93499.97
2024-03-10T04:59:21.622Z,93503.50
2024-03-10T05:00:23.484Z,93494.50
2024-03-10T05:01:28.481Z,93489.81
2024-03-10T05:02:31.882Z,93482.81
2024-03-10T05:03:35.026Z,93477.31
2024-03-10T05:04:36.922Z,93470.34
2024-03-10T05:05:39.874Z,93471.59
2024-03-10T05:06:42.743Z,93472.81
2024-03-10T05:07:52.195Z,93465.84
2024-03-10T05:08:54.261Z,93464.34
2024-03-10T05:09:57.140Z,93468.31
2024-03-10T05:10:59.267Z,93471.81
2024-03-10T05:12:04.140Z,93471.53
2024-03-10T05:13:06.148Z,93491.19
2024-03-10T05:14:09.015Z,93492.69
2024-03-10T05:15:11.866Z,93499.66
2024-03-10T05:16:13.860Z,93498.19
2024-03-10T05:17:16.847Z,93499.41
2024-03-10T05:18:20.178Z,93502.63
2024-03-10T05:19:23.091Z,93504.59
2024-03-10T05:20:25.875Z,93522.53
2024-03-10T05:21:28.958Z,93515.53
2024-03-10T05:22:34.530Z,93523.50
2024-03-10T05:23:39.463Z,93524.25
2024-03-10T05:24:44.009Z,93525.47
2024-03-10T05:25:46.988Z,93524.25
2024-03-10T05:26:48.933Z,93525.97
2024-03-10T05:27:52.344Z,93523.25
2024-03-10T05:28:54.298Z,93529.94
2024-03-10T05:29:58.748Z,93526.94
2024-03-10T05:31:00.783Z,93526.19
2024-03-10T05:32:04.273Z,93511.47
2024-03-10T05:33:07.098Z,93524.41
2024-03-10T05:34:11.512Z,93520.91
2024-03-10T05:35:13.908Z,93514.69
2024-03-10T05:36:17.218Z,93515.44
2024-03-10T05:37:19.229Z,93513.94
2024-03-10T05:38:22.708Z,93515.19
2024-03-10T05:39:25.635Z,93513.66
2024-03-10T05:40:28.582Z,93521.88
2024-03-10T05:41:30.699Z,93528.88
2024-03-10T05:42:33.680Z,93535.56
2024-03-10T05:43:35.556Z,93534.50
2024-03-10T05:44:38.499Z,93533.94
2024-03-10T05:45:41.614Z,93539.13
2024-03-10T05:46:44.540Z,93528.66
2024-03-10T05:47:46.371Z,93537.38
2024-03-10T05:48:50.051Z,93536.59
2024-03-10T05:49:53.326Z,93550.28
2024-03-10T05:50:56.225Z,93543.78
2024-03-10T05:51:58.247Z,93540.91
2024-03-10T05:53:01.149Z,93542.69
2024-03-10T05:54:06.265Z,93540.97
2024-03-10T05:55:10.669Z,93533.53
2024-03-10T05:56:12.963Z,93534.25
2024-03-10T05:57:15.973Z,93533.53
2024-03-10T05:58:17.994Z,93533.78
2024-03-10T05:59:20.896Z,93536.53
2024-03-10T06:00:23.016Z,93535.28
2024-03-10T06:01:25.981Z,93544.25
2024-03-10T06:02:29.848Z,93541.50
2024-03-10T06:03:32.790Z,93534.81
2024-03-10T06:04:34.705Z,93537.56
2024-03-10T06:05:39.191Z,93547.75
2024-03-10T06:06:41.159Z,93544.75
2024-03-10T06:07:45.013Z,93541.25
2024-03-10T06:08:47.275Z,93543.22
2024-03-10T06:09:50.118Z,93545.69
2024-03-10T06:10:52.766Z,93544.19
2024-03-10T06:11:55.841Z,93544.19
2024-03-10T06:12:58.109Z,93543.91
2024-03-10T06:14:01.391Z,93540.44
2024-03-10T06:15:03.841Z,93530.47
2024-03-10T06:16:07.296Z,93529.41
2024-03-10T06:17:10.026Z,93517.25
2024-03-10T06:18:22.628Z,93523.00
2024-03-10T06:19:43.433Z,93518.75
2024-03-10T06:21:05.460Z,93520.72
2024-03-10T06:22:26.041Z,93516.50
2024-03-10T06:23:46.459Z,93521.19
2024-03-10T06:25:08.416Z,93514.97
2024-03-10T06:26:11.947Z,93518.47
2024-03-10T06:27:14.403Z,93517.94
2024-03-10T06:28:17.543Z,93523.69
2024-03-10T06:29:19.736Z,93511.22
2024-03-10T06:30:21.642Z,93510.94
2024-03-10T06:31:26.650Z,93513.69
2024-03-10T06:32:28.803Z,93507.47
2024-03-10T06:33:30.862Z,93509.94
2024-03-10T06:34:33.942Z,93504.91
2024-03-10T06:35:36.142Z,93506.91
2024-03-10T06:36:41.689Z,93504.69
2024-03-10T06:37:43.771Z,93516.09
2024-03-10T06:38:47.024Z,93518.09
2024-03-10T06:39:48.990Z,93522.03
2024-03-10T06:40:52.156Z,93531.75
2024-03-10T06:41:54.052Z,93520.53
2024-03-10T06:42:58.125Z,93519.78
2024-03-10T06:44:00.242Z,93514.78
2024-03-10T06:45:02.200Z,93513.53
2024-03-10T06:46:05.796Z,93510.81
2024-03-10T06:47:08.512Z,93514.31
2024-03-10T06:48:14.397Z,93520.53
2024-03-10T06:49:16.373Z,93524.06
2024-03-10T06:50:19.278Z,93535.28
2024-03-10T06:51:22.186Z,93535.28
2024-03-10T06:52:25.417Z,93534.34
2024-03-10T06:53:28.924Z,93534.63
2024-03-10T06:54:30.947Z,93534.63
2024-03-10T06:55:34.713Z,93536.31
2024-03-10T06:56:39.356Z,93542.28
2024-03-10T06:57:42.413Z,93540.31
2024-03-10T06:58:45.392Z,93530.59
2024-03-10T06:59:48.307Z,93535.56
2024-03-10T07:00:50.183Z,93531.63
2024-03-10T07:01:56.567Z,93523.41
2024-03-10T07:03:00.026Z,93522.63
2024-03-10T07:04:02.081Z,93514.44
2024-03-10T07:05:05.583Z,93514.97
2024-03-10T07:06:08.291Z,93510.25
2024-03-10T07:07:11.421Z,93507.13
2024-03-10T07:08:17.109Z,93502.66
2024-03-10T07:09:22.806Z,93497.94
2024-03-10T07:10:25.225Z,93493.97
2024-03-10T07:11:28.513Z,93498.97
2024-03-10T07:12:31.291Z,93505.44
2024-03-10T07:13:34.491Z,93503.00
2024-03-10T07:14:38.169Z,93506.00
2024-03-10T07:15:41.115Z,93513.25
2024-03-10T07:16:44.959Z,93514.25
2024-03-10T07:17:48.182Z,93505.56
2024-03-10T07:18:50.239Z,93506.31
2024-03-10T07:19:53.280Z,93505.84
2024-03-10T07:20:55.294Z,93501.38
2024-03-10T07:21:58.208Z,93507.59
2024-03-10T07:23:00.712Z,93508.34
2024-03-10T07:24:05.566Z,93498.44
2024-03-10T07:25:09.891Z,93487.00
2024-03-10T07:26:13.549Z,93487.25
2024-03-10T07:27:15.548Z,93482.81
2024-03-10T07:28:17.800Z,93475.34
2024-03-10T07:29:20.753Z,93474.84
2024-03-10T07:30:23.045Z,93473.38
2024-03-10T07:31:27.969Z,93473.63
2024-03-10T07:32:30.028Z,93471.41
2024-03-10T07:33:33.635Z,93468.69
2024-03-10T07:34:35.997Z,93472.44
2024-03-10T07:35:38.821Z,93466.22
2024-03-10T07:36:41.876Z,93468.47
2024-03-10T07:37:45.398Z,93471.94
2024-03-10T07:38:48.367Z,93463.75
2024-03-10T07:39:51.758Z,93472.66
2024-03-10T07:40:57.427Z,93469.22
2024-03-10T07:42:01.601Z,93467.56
2024-03-10T07:43:05.485Z,93470.59
2024-03-10T07:44:09.278Z,93466.75
2024-03-10T07:45:12.623Z,93472.69
2024-03-10T07:46:14.664Z,93477.69
2024-03-10T07:47:17.707Z,93472.75
2024-03-10T07:48:19.754Z,93476.81
2024-03-10T07:49:22.694Z,93472.34
2024-03-10T07:50:24.797Z,93473.38
2024-03-10T07:51:28.270Z,93477.66
2024-03-10T07:52:31.501Z,93481.41
2024-03-10T07:53:34.830Z,93481.34
2024-03-10T07:54:36.802Z,93475.34
2024-03-10T07:55:41.314Z,93465.44
2024-03-10T07:56:43.621Z,93469.91
2024-03-10T07:57:46.592Z,93473.66
2024-03-10T07:58:48.560Z,93471.19
2024-03-10T07:59:50.531Z,93471.19
2024-03-10T08:00:53.591Z,93470.88
2024-03-10T08:01:55.561Z,93467.13
2024-03-10T08:02:58.556Z,93472.63
2024-03-10T08:04:01.336Z,93477.34
2024-03-10T08:05:04.869Z,93476.56
2024-03-10T08:06:08.949Z,93469.59
2024-03-10T08:07:12.841Z,93469.59
2024-03-10T08:08:14.838Z,93469.59
2024-03-10T08:09:19.230Z,93472.09
2024-03-10T08:10:22.337Z,93477.81
2024-03-10T08:11:26.816Z,93478.63
2024-03-10T08:12:28.827Z,93475.13
2024-03-10T08:13:31.760Z,93479.84
2024-03-10T08:14:33.838Z,93480.34
2024-03-10T08:15:38.229Z,93478.38
2024-03-10T08:16:41.351Z,93479.09
2024-03-10T08:17:44.325Z,93476.38
2024-03-10T08:18:48.158Z,93488.81
2024-03-10T08:19:52.839Z,93480.59
2024-03-10T08:20:55.199Z,93481.38
2024-03-10T08:21:58.607Z,93487.59
2024-03-10T08:23:00.593Z,93488.34
2024-03-10T08:24:02.598Z,93484.38
2024-03-10T08:25:05.907Z,93486.78
2024-03-10T08:26:10.834Z,93480.88
2024-03-10T08:27:17.610Z,93481.31
2024-03-10T08:28:20.245Z,93483.78
2024-03-10T08:29:23.195Z,93476.34
2024-03-10T08:30:25.335Z,93474.81
2024-03-10T08:31:28.203Z,93470.59
2024-03-10T08:32:31.263Z,93479.06
2024-03-10T08:33:34.694Z,93480.56
2024-03-10T08:34:36.693Z,93469.03
2024-03-10T08:35:39.677Z,93478.31
2024-03-10T08:36:41.608Z,93467.56
2024-03-10T08:37:45.998Z,93459.34
2024-03-10T08:38:48.121Z,93458.84
2024-03-10T08:39:51.646Z,93459.63
2024-03-10T08:40:54.288Z,93463.13
2024-03-10T08:41:57.231Z,93466.88
2024-03-10T08:43:00.838Z,93466.88
2024-03-10T08:44:04.863Z,93466.88
2024-03-10T08:45:11.637Z,93468.88
2024-03-10T08:46:14.952Z,93474.63
2024-03-10T08:47:17.445Z,93469.59
2024-03-10T08:48:20.474Z,93474.53
2024-03-10T08:49:22.978Z,93477.75
2024-03-10T08:50:25.920Z,93470.28
2024-03-10T08:51:29.813Z,93464.31
2024-03-10T08:52:31.722Z,93466.31
2024-03-10T08:53:34.754Z,93457.34
2024-03-10T08:54:37.864Z,93464.31
2024-03-10T08:55:42.021Z,93452.59
2024-03-10T08:56:44.204Z,93451.06
2024-03-10T08:57:46.132Z,93447.38
2024-03-10T08:58:50.443Z,93449.59
2024-03-10T08:59:52.642Z,93440.16
2024-03-10T09:00:55.608Z,93439.41
2024-03-10T09:01:59.385Z,93434.69
2024-03-10T09:03:02.474Z,93440.91
2024-03-10T09:04:08.028Z,93427.94
2024-03-10T09:05:14.138Z,93426.75
2024-03-10T09:06:18.986Z,93436.19
2024-03-10T09:07:21.131Z,93426.75
2024-03-10T09:08:24.064Z,93439.22
2024-03-10T09:09:26.059Z,93429.50
2024-03-10T09:10:35.949Z,93439.47
2024-03-10T09:11:46.549Z,93436.00
2024-03-10T09:12:49.524Z,93425.03
2024-03-10T09:13:53.411Z,93424.53
2024-03-10T09:14:56.546Z,93426.75
2024-03-10T09:15:58.565Z,93422.31
2024-03-10T09:17:04.885Z,93425.06
2024-03-10T09:18:07.179Z,93419.31
2024-03-10T09:19:10.957Z,93413.38
2024-03-10T09:20:14.784Z,93417.66
2024-03-10T09:21:18.570Z,93415.38
2024-03-10T09:22:20.869Z,93415.38
2024-03-10T09:23:23.791Z,93405.16
2024-03-10T09:24:27.241Z,93409.63
2024-03-10T09:25:31.521Z,93406.16
2024-03-10T09:26:33.923Z,93404.94
2024-03-10T09:27:36.815Z,93400.94
2024-03-10T09:28:39.698Z,93407.41
2024-03-10T09:29:44.037Z,93410.41
2024-03-10T09:30:50.006Z,93410.41
2024-03-10T09:31:52.933Z,93417.38
2024-03-10T09:32:56.046Z,93413.38
2024-03-10T09:34:00.744Z,93416.41
2024-03-10T09:35:04.374Z,93414.91
2024-03-10T09:36:07.670Z,93426.13
2024-03-10T09:37:09.885Z,93419.41
2024-03-10T09:38:13.712Z,93421.66
2024-03-10T09:39:16.886Z,93416.94
2024-03-10T09:40:26.691Z,93416.44
2024-03-10T09:41:31.120Z,93419.94
2024-03-10T09:42:33.179Z,93415.19
2024-03-10T09:43:38.865Z,93413.19
2024-03-10T09:44:43.909Z,93415.47
2024-03-10T09:45:49.248Z,93424.44
2024-03-10T09:46:52.807Z,93427.16
2024-03-10T09:47:55.244Z,93421.69
2024-03-10T09:48:59.921Z,93420.47
2024-03-10T09:50:06.645Z,93425.94
2024-03-10T09:51:12.740Z,93427.44
2024-03-10T09:52:14.739Z,93421.94
2024-03-10T09:53:19.463Z,93427.44
2024-03-10T09:54:23.096Z,93429.69
2024-03-10T09:55:27.658Z,93435.91
2024-03-10T09:56:29.766Z,93431.69
2024-03-10T09:57:33.670Z,93432.91
2024-03-10T09:58:48.344Z,93440.22
2024-03-10T09:59:52.791Z,93436.28
2024-03-10T10:00:55.885Z,93437.06
2024-03-10T10:02:05.224Z,93436.28
2024-03-10T10:03:09.982Z,93430.06
2024-03-10T10:04:15.113Z,93426.56
2024-03-10T10:05:25.933Z,93422.31
2024-03-10T10:06:31.813Z,93424.31
2024-03-10T10:07:35.537Z,93413.88
2024-03-10T10:08:37.456Z,93422.34
2024-03-10T10:09:40.561Z,93424.09
2024-03-10T10:10:48.032Z,93417.88
2024-03-10T10:11:51.045Z,93421.09
2024-03-10T10:12:54.796Z,93419.13
2024-03-10T10:14:11.555Z,93419.63
2024-03-10T10:15:18.764Z,93414.63
2024-03-10T10:16:23.155Z,93416.59
2024-03-10T10:17:28.738Z,93412.38
2024-03-10T10:18:37.057Z,93412.38
2024-03-10T10:19:41.970Z,93413.59
2024-03-10T10:20:48.591Z,93412.88
2024-03-10T10:21:51.746Z,93406.63
2024-03-10T10:22:56.075Z,93411.59
2024-03-10T10:23:59.104Z,93408.38
2024-03-10T10:25:03.250Z,93405.88
2024-03-10T10:26:10.610Z,93403.63
2024-03-10T10:27:12.795Z,93400.69
2024-03-10T10:28:15.030Z,93410.94
2024-03-10T10:29:18.775Z,93402.97
2024-03-10T10:30:23.635Z,93403.22
2024-03-10T10:31:26.698Z,93401.72
2024-03-10T10:32:28.782Z,93400.22
2024-03-10T10:33:31.745Z,93399.47
2024-03-10T10:34:34.458Z,93399.22
2024-03-10T10:35:40.686Z,93397.22
2024-03-10T10:36:42.899Z,93405.19
2024-03-10T10:37:48.033Z,93394.22
2024-03-10T10:38:51.160Z,93393.56
2024-03-10T10:39:55.236Z,93386.41
2024-03-10T10:40:59.558Z,93384.16
2024-03-10T10:42:03.494Z,93382.91
2024-03-10T10:43:07.494Z,93382.91
2024-03-10T10:44:10.464Z,93377.16
2024-03-10T10:45:15.561Z,93374.66
2024-03-10T10:46:20.441Z,93380.63
2024-03-10T10:47:23.390Z,93372.66
2024-03-10T10:48:29.437Z,93377.63
2024-03-10T10:49:34.939Z,93375.63
2024-03-10T10:50:39.194Z,93377.13
2024-03-10T10:51:41.230Z,93382.34
2024-03-10T10:52:43.539Z,93377.13
2024-03-10T10:53:46.802Z,93377.13
2024-03-10T10:54:48.802Z,93374.63
2024-03-10T10:55:51.835Z,93370.38
2024-03-10T10:56:55.611Z,93373.59
2024-03-10T10:57:59.411Z,93370.63
2024-03-10T10:59:01.648Z,93365.38
2024-03-10T11:00:15.224Z,93364.41
2024-03-10T11:01:22.558Z,93360.41
2024-03-10T11:02:28.750Z,93365.91
2024-03-10T11:03:37.332Z,93354.19
2024-03-10T11:04:41.913Z,93354.94
2024-03-10T11:05:47.604Z,93361.94
2024-03-10T11:06:50.085Z,93364.16
2024-03-10T11:07:53.085Z,93357.44
2024-03-10T11:08:57.658Z,93357.69
2024-03-10T11:10:00.525Z,93359.19
2024-03-10T11:11:03.312Z,93363.19
2024-03-10T11:12:18.959Z,93352.25
2024-03-10T11:13:23.656Z,93349.50
2024-03-10T11:14:27.735Z,93347.03
2024-03-10T11:15:32.162Z,93346.03
2024-03-10T11:16:36.260Z,93350.53
2024-03-10T11:17:39.288Z,93343.03
2024-03-10T11:18:42.017Z,93342.53
2024-03-10T11:19:48.659Z,93349.53
2024-03-10T11:20:50.898Z,93336.81
2024-03-10T11:21:54.636Z,93331.56
2024-03-10T11:22:56.537Z,93329.31
2024-03-10T11:24:00.082Z,93335.56
2024-03-10T11:25:10.582Z,93332.59
2024-03-10T11:26:16.846Z,93332.06
2024-03-10T11:27:20.854Z,93330.84
2024-03-10T11:28:28.001Z,93333.84
2024-03-10T11:29:30.280Z,93332.09
2024-03-10T11:30:52.190Z,93328.63
2024-03-10T11:31:59.150Z,93324.16
2024-03-10T11:33:05.896Z,93314.16
2024-03-10T11:34:09.952Z,93320.16
2024-03-10T11:35:15.124Z,93311.91
2024-03-10T11:36:17.448Z,93309.66
2024-03-10T11:37:20.544Z,93302.19
2024-03-10T11:38:22.768Z,93307.16
2024-03-10T11:39:25.743Z,93297.91
2024-03-10T11:40:31.320Z,93298.13
2024-03-10T11:41:35.127Z,93298.84
2024-03-10T11:42:37.169Z,93297.09
2024-03-10T11:43:43.109Z,93298.34
2024-03-10T11:44:45.670Z,93282.56
2024-03-10T11:45:48.557Z,93287.09
2024-03-10T11:46:50.439Z,93278.31
2024-03-10T11:47:56.410Z,93286.28
2024-03-10T11:48:59.017Z,93280.03
2024-03-10T11:50:05.819Z,93280.53
2024-03-10T11:51:09.883Z,93273.75
2024-03-10T11:52:16.518Z,93283.00
2024-03-10T11:53:18.431Z,93284.97
2024-03-10T11:54:26.115Z,93283.50
2024-03-10T11:55:29.665Z,93280.72
2024-03-10T11:56:34.340Z,93279.44
2024-03-10T11:57:36.395Z,93283.69
2024-03-10T11:58:40.727Z,93279.66
2024-03-10T11:59:43.495Z,93283.41
2024-03-10T12:00:46.538Z,93279.16
2024-03-10T12:01:48.594Z,93284.19
2024-03-10T12:02:52.667Z,93297.41
2024-03-10T12:03:58.492Z,93291.38
2024-03-10T12:05:02.591Z,93293.34
2024-03-10T12:06:06.483Z,93294.81
2024-03-10T12:07:10.104Z,93294.22
2024-03-10T12:08:14.370Z,93308.66
2024-03-10T12:09:22.275Z,93306.69
2024-03-10T12:10:26.223Z,93297.16
2024-03-10T12:11:29.326Z,93295.63
2024-03-10T12:12:31.818Z,93307.34
2024-03-10T12:13:34.999Z,93291.59
2024-03-10T12:14:38.187Z,93305.91
2024-03-10T12:15:41.146Z,93310.91
2024-03-10T12:16:49.401Z,93300.13
2024-03-10T12:17:53.338Z,93301.16
2024-03-10T12:18:59.818Z,93296.84
2024-03-10T12:20:03.246Z,93296.53
2024-03-10T12:21:05.856Z,93298.94
2024-03-10T12:22:08.891Z,93304.47
2024-03-10T12:23:11.819Z,93299.91
2024-03-10T12:24:15.679Z,93297.09
2024-03-10T12:25:19.825Z,93301.38
2024-03-10T12:26:24.098Z,93286.34
2024-03-10T12:27:26.085Z,93288.88
2024-03-10T12:28:28.118Z,93294.41
2024-03-10T12:29:31.095Z,93283.13
2024-03-10T12:30:33.107Z,93284.06
2024-03-10T12:31:38.587Z,93284.28